Allgood, Alabama
Current Conditions -  °F | °C
As of 5:35 PM on Friday 31 Oct 2014 (Local Time) from KGAD Reporting Station
Overcast Overcast  
Wind Chill: 52°   Ceiling: 2700
Heat Index: 52°   Visibility: 7mi
Dew Point: 45°   Wind: 14mph
Humidity: 76%   Direction: 330°NNW
Pressure: 30"   Gusts: 26mph
Location:  33.91°N, 86.51°W
Report Text: KGAD 312235Z 33012G23KT 7SM SCT018 BKN027 OVC035 11/07 A3000 RMK AO1
Loading
Personal Weather Stations






























Interactive Weather Map
Tropical Storm Tracking
New forecast layout! Learn more

10-Day Weather Forecast

Advertisements
Track Severe Weather on mobile